sensor_id;sensor_type;location;lat;lon;timestamp;pressure;altitude;pressure_sealevel;temperature;humidity
7335;BME280;3708;42.632;23.378;2022-10-17T00:02:22;95597.19;;;12.73;49.77
7335;BME280;3708;42.632;23.378;2022-10-17T00:04:50;95596.16;;;12.83;49.65
7335;BME280;3708;42.632;23.378;2022-10-17T00:07:17;95592.28;;;12.80;49.63
7335;BME280;3708;42.632;23.378;2022-10-17T00:09:44;95595.06;;;12.84;49.80
7335;BME280;3708;42.632;23.378;2022-10-17T00:12:11;95586.59;;;12.87;49.56
7335;BME280;3708;42.632;23.378;2022-10-17T00:14:38;95591.31;;;12.76;49.26
7335;BME280;3708;42.632;23.378;2022-10-17T00:17:05;95591.53;;;12.66;49.71
7335;BME280;3708;42.632;23.378;2022-10-17T00:19:32;95593.22;;;12.62;49.67
7335;BME280;3708;42.632;23.378;2022-10-17T00:22:00;95597.88;;;12.43;49.94
7335;BME280;3708;42.632;23.378;2022-10-17T00:24:29;95590.56;;;12.40;50.03
7335;BME280;3708;42.632;23.378;2022-10-17T00:26:56;95598.94;;;12.06;50.51
7335;BME280;3708;42.632;23.378;2022-10-17T00:29:23;95598.19;;;11.79;50.93
7335;BME280;3708;42.632;23.378;2022-10-17T00:31:53;95593.16;;;11.69;51.19
7335;BME280;3708;42.632;23.378;2022-10-17T00:34:21;95603.28;;;11.43;51.84
7335;BME280;3708;42.632;23.378;2022-10-17T00:36:48;95598.50;;;11.18;52.55
7335;BME280;3708;42.632;23.378;2022-10-17T00:39:16;95598.03;;;10.84;53.57
7335;BME280;3708;42.632;23.378;2022-10-17T00:41:43;95605.69;;;10.80;53.85
7335;BME280;3708;42.632;23.378;2022-10-17T00:47:15;95609.25;;;10.70;54.53
7335;BME280;3708;42.632;23.378;2022-10-17T00:49:43;95608.69;;;10.73;54.68
7335;BME280;3708;42.632;23.378;2022-10-17T00:52:12;95602.41;;;10.88;54.49
7335;BME280;3708;42.632;23.378;2022-10-17T00:54:47;95601.19;;;10.99;54.37
7335;BME280;3708;42.632;23.378;2022-10-17T00:57:15;95610.69;;;10.95;54.24
7335;BME280;3708;42.632;23.378;2022-10-17T00:59:46;95606.22;;;10.96;54.40
7335;BME280;3708;42.632;23.378;2022-10-17T01:02:18;95604.44;;;10.91;54.42
7335;BME280;3708;42.632;23.378;2022-10-17T01:04:50;95606.75;;;11.11;54.47
7335;BME280;3708;42.632;23.378;2022-10-17T01:07:17;95605.75;;;11.07;54.16
7335;BME280;3708;42.632;23.378;2022-10-17T01:09:46;95603.38;;;11.24;53.76
7335;BME280;3708;42.632;23.378;2022-10-17T01:12:18;95596.22;;;11.30;53.60
7335;BME280;3708;42.632;23.378;2022-10-17T01:14:57;95598.22;;;11.33;53.51
7335;BME280;3708;42.632;23.378;2022-10-17T01:17:32;95602.28;;;11.12;53.49
7335;BME280;3708;42.632;23.378;2022-10-17T01:20:36;95603.75;;;11.18;53.86
7335;BME280;3708;42.632;23.378;2022-10-17T01:23:26;95590.91;;;11.03;54.03
7335;BME280;3708;42.632;23.378;2022-10-17T01:26:04;95599.38;;;10.81;54.51
7335;BME280;3708;42.632;23.378;2022-10-17T01:28:52;95593.81;;;10.69;54.82
7335;BME280;3708;42.632;23.378;2022-10-17T01:31:31;95596.28;;;10.79;54.89
7335;BME280;3708;42.632;23.378;2022-10-17T01:34:04;95597.16;;;10.56;55.03
7335;BME280;3708;42.632;23.378;2022-10-17T01:36:43;95604.88;;;10.47;55.48
7335;BME280;3708;42.632;23.378;2022-10-17T01:39:18;95604.09;;;10.47;55.40
7335;BME280;3708;42.632;23.378;2022-10-17T01:41:51;95603.94;;;10.57;55.58
7335;BME280;3708;42.632;23.378;2022-10-17T01:44:26;95607.22;;;10.49;55.58
7335;BME280;3708;42.632;23.378;2022-10-17T01:46:59;95607.06;;;10.59;55.39
7335;BME280;3708;42.632;23.378;2022-10-17T01:49:30;95618.03;;;10.61;55.29
7335;BME280;3708;42.632;23.378;2022-10-17T01:52:02;95618.25;;;10.64;55.41
7335;BME280;3708;42.632;23.378;2022-10-17T01:54:32;95617.34;;;10.55;55.44
7335;BME280;3708;42.632;23.378;2022-10-17T01:57:05;95618.97;;;10.51;55.48
7335;BME280;3708;42.632;23.378;2022-10-17T01:59:37;95610.47;;;10.78;54.89
7335;BME280;3708;42.632;23.378;2022-10-17T02:02:08;95627.06;;;10.87;54.56
7335;BME280;3708;42.632;23.378;2022-10-17T02:04:36;95613.81;;;10.97;54.24
7335;BME280;3708;42.632;23.378;2022-10-17T02:07:06;95621.75;;;10.92;54.17
7335;BME280;3708;42.632;23.378;2022-10-17T02:09:34;95619.50;;;10.86;54.38
7335;BME280;3708;42.632;23.378;2022-10-17T02:12:18;95620.97;;;10.92;54.42
7335;BME280;3708;42.632;23.378;2022-10-17T02:14:58;95632.97;;;10.79;54.42
7335;BME280;3708;42.632;23.378;2022-10-17T02:17:37;95617.59;;;10.72;54.42
7335;BME280;3708;42.632;23.378;2022-10-17T02:20:15;95617.25;;;10.79;54.66
7335;BME280;3708;42.632;23.378;2022-10-17T02:22:46;95619.00;;;10.84;54.50
7335;BME280;3708;42.632;23.378;2022-10-17T02:25:22;95622.41;;;10.84;53.92
7335;BME280;3708;42.632;23.378;2022-10-17T02:27:52;95627.91;;;10.83;53.94
7335;BME280;3708;42.632;23.378;2022-10-17T02:30:28;95631.81;;;10.85;54.14
7335;BME280;3708;42.632;23.378;2022-10-17T02:33:01;95630.47;;;10.88;53.73
7335;BME280;3708;42.632;23.378;2022-10-17T02:35:34;95630.34;;;10.79;54.25
7335;BME280;3708;42.632;23.378;2022-10-17T02:38:05;95627.78;;;10.93;54.26
7335;BME280;3708;42.632;23.378;2022-10-17T02:40:35;95628.88;;;10.73;54.12
7335;BME280;3708;42.632;23.378;2022-10-17T02:43:03;95632.47;;;10.77;53.88
7335;BME280;3708;42.632;23.378;2022-10-17T02:45:31;95633.38;;;10.67;53.78
7335;BME280;3708;42.632;23.378;2022-10-17T02:48:04;95638.78;;;10.57;54.20
7335;BME280;3708;42.632;23.378;2022-10-17T02:50:38;95637.66;;;10.45;54.94
7335;BME280;3708;42.632;23.378;2022-10-17T02:53:11;95641.81;;;10.46;54.83
7335;BME280;3708;42.632;23.378;2022-10-17T02:55:42;95642.97;;;10.40;55.21
7335;BME280;3708;42.632;23.378;2022-10-17T02:58:16;95647.31;;;10.31;55.53
7335;BME280;3708;42.632;23.378;2022-10-17T03:00:44;95649.19;;;10.25;55.92
7335;BME280;3708;42.632;23.378;2022-10-17T03:03:23;95655.06;;;10.36;55.66
7335;BME280;3708;42.632;23.378;2022-10-17T03:05:50;95657.97;;;10.34;55.74
7335;BME280;3708;42.632;23.378;2022-10-17T03:08:19;95659.53;;;10.35;56.05
7335;BME280;3708;42.632;23.378;2022-10-17T03:10:47;95661.88;;;10.37;55.89
7335;BME280;3708;42.632;23.378;2022-10-17T03:13:14;95664.13;;;10.25;55.99
7335;BME280;3708;42.632;23.378;2022-10-17T03:15:42;95669.69;;;10.18;56.16
7335;BME280;3708;42.632;23.378;2022-10-17T03:18:09;95658.81;;;10.11;56.53
7335;BME280;3708;42.632;23.378;2022-10-17T03:20:37;95660.28;;;9.93;56.71
7335;BME280;3708;42.632;23.378;2022-10-17T03:23:04;95656.13;;;9.69;57.39
7335;BME280;3708;42.632;23.378;2022-10-17T03:25:31;95659.41;;;9.79;57.34
7335;BME280;3708;42.632;23.378;2022-10-17T03:27:59;95664.78;;;9.64;57.76
7335;BME280;3708;42.632;23.378;2022-10-17T03:30:26;95670.19;;;9.73;57.58
7335;BME280;3708;42.632;23.378;2022-10-17T03:32:54;95668.16;;;9.70;57.76
7335;BME280;3708;42.632;23.378;2022-10-17T03:35:21;95663.41;;;9.48;58.42
7335;BME280;3708;42.632;23.378;2022-10-17T03:37:50;95673.78;;;9.53;58.18
7335;BME280;3708;42.632;23.378;2022-10-17T03:40:17;95674.84;;;9.57;58.19
7335;BME280;3708;42.632;23.378;2022-10-17T03:43:01;95671.47;;;9.52;58.20
7335;BME280;3708;42.632;23.378;2022-10-17T03:45:36;95672.41;;;9.37;58.51
7335;BME280;3708;42.632;23.378;2022-10-17T03:48:12;95675.97;;;9.17;58.96
7335;BME280;3708;42.632;23.378;2022-10-17T03:50:41;95675.69;;;9.19;59.33
7335;BME280;3708;42.632;23.378;2022-10-17T03:53:09;95684.47;;;9.33;59.07
7335;BME280;3708;42.632;23.378;2022-10-17T03:55:36;95681.25;;;9.41;58.80
7335;BME280;3708;42.632;23.378;2022-10-17T03:58:03;95681.88;;;9.28;58.86
7335;BME280;3708;42.632;23.378;2022-10-17T04:00:31;95682.84;;;9.37;58.75
7335;BME280;3708;42.632;23.378;2022-10-17T04:03:00;95677.22;;;9.25;59.14
7335;BME280;3708;42.632;23.378;2022-10-17T04:05:34;95684.22;;;9.30;59.20
7335;BME280;3708;42.632;23.378;2022-10-17T04:08:04;95683.78;;;9.23;59.18
7335;BME280;3708;42.632;23.378;2022-10-17T04:10:32;95688.28;;;9.46;59.01
7335;BME280;3708;42.632;23.378;2022-10-17T04:13:00;95690.03;;;9.55;58.58
7335;BME280;3708;42.632;23.378;2022-10-17T04:15:28;95691.06;;;9.54;58.64
7335;BME280;3708;42.632;23.378;2022-10-17T04:17:55;95688.34;;;9.64;57.96
7335;BME280;3708;42.632;23.378;2022-10-17T04:20:22;95693.03;;;9.67;57.79
7335;BME280;3708;42.632;23.378;2022-10-17T04:22:49;95696.75;;;9.61;57.22
7335;BME280;3708;42.632;23.378;2022-10-17T04:25:16;95695.53;;;9.77;57.36
7335;BME280;3708;42.632;23.378;2022-10-17T04:27:44;95701.09;;;9.94;57.13
7335;BME280;3708;42.632;23.378;2022-10-17T04:30:11;95695.53;;;10.01;56.69
7335;BME280;3708;42.632;23.378;2022-10-17T04:32:38;95701.06;;;9.99;56.27
7335;BME280;3708;42.632;23.378;2022-10-17T04:35:06;95691.91;;;9.97;55.53
7335;BME280;3708;42.632;23.378;2022-10-17T04:37:33;95696.09;;;9.98;55.43
7335;BME280;3708;42.632;23.378;2022-10-17T04:40:00;95696.31;;;10.02;55.46
7335;BME280;3708;42.632;23.378;2022-10-17T04:42:28;95700.22;;;10.04;55.33
7335;BME280;3708;42.632;23.378;2022-10-17T04:44:56;95707.00;;;10.05;55.07
7335;BME280;3708;42.632;23.378;2022-10-17T04:47:23;95703.56;;;10.10;55.11
7335;BME280;3708;42.632;23.378;2022-10-17T04:49:50;95703.25;;;10.16;55.01
7335;BME280;3708;42.632;23.378;2022-10-17T04:52:16;95707.34;;;10.22;54.90
7335;BME280;3708;42.632;23.378;2022-10-17T04:54:43;95716.38;;;9.87;55.02
7335;BME280;3708;42.632;23.378;2022-10-17T04:57:10;95713.84;;;9.77;55.56
7335;BME280;3708;42.632;23.378;2022-10-17T04:59:37;95716.47;;;9.77;55.67
7335;BME280;3708;42.632;23.378;2022-10-17T05:02:06;95714.28;;;9.61;56.12
7335;BME280;3708;42.632;23.378;2022-10-17T05:04:32;95714.03;;;9.34;56.79
7335;BME280;3708;42.632;23.378;2022-10-17T05:07:00;95717.97;;;9.31;57.38
7335;BME280;3708;42.632;23.378;2022-10-17T05:09:27;95720.63;;;9.21;57.70
7335;BME280;3708;42.632;23.378;2022-10-17T05:11:54;95715.22;;;9.46;57.92
7335;BME280;3708;42.632;23.378;2022-10-17T05:14:21;95727.84;;;9.91;57.12
7335;BME280;3708;42.632;23.378;2022-10-17T05:16:47;95730.91;;;9.98;56.15
7335;BME280;3708;42.632;23.378;2022-10-17T05:19:16;95732.97;;;9.78;56.26
7335;BME280;3708;42.632;23.378;2022-10-17T05:21:43;95723.59;;;9.72;56.43
7335;BME280;3708;42.632;23.378;2022-10-17T05:24:12;95736.00;;;9.61;56.90
7335;BME280;3708;42.632;23.378;2022-10-17T05:26:39;95736.50;;;9.63;56.92
7335;BME280;3708;42.632;23.378;2022-10-17T05:29:07;95743.00;;;9.37;57.67
7335;BME280;3708;42.632;23.378;2022-10-17T05:31:34;95746.09;;;9.44;57.46
7335;BME280;3708;42.632;23.378;2022-10-17T05:34:02;95735.28;;;9.22;58.10
7335;BME280;3708;42.632;23.378;2022-10-17T05:36:30;95746.03;;;9.49;58.22
7335;BME280;3708;42.632;23.378;2022-10-17T05:38:57;95747.03;;;9.53;57.92
7335;BME280;3708;42.632;23.378;2022-10-17T05:41:24;95748.97;;;9.71;57.44
7335;BME280;3708;42.632;23.378;2022-10-17T05:43:51;95753.72;;;9.69;57.33
7335;BME280;3708;42.632;23.378;2022-10-17T05:46:18;95746.03;;;9.78;57.34
7335;BME280;3708;42.632;23.378;2022-10-17T05:48:45;95751.25;;;10.07;56.83
7335;BME280;3708;42.632;23.378;2022-10-17T05:51:12;95751.81;;;10.27;56.62
7335;BME280;3708;42.632;23.378;2022-10-17T05:53:41;95758.66;;;10.47;56.49
7335;BME280;3708;42.632;23.378;2022-10-17T05:56:10;95751.41;;;10.62;55.61
7335;BME280;3708;42.632;23.378;2022-10-17T05:58:39;95761.09;;;10.81;55.35
7335;BME280;3708;42.632;23.378;2022-10-17T06:01:07;95755.88;;;10.99;54.99
7335;BME280;3708;42.632;23.378;2022-10-17T06:03:34;95762.09;;;11.22;54.56
7335;BME280;3708;42.632;23.378;2022-10-17T06:06:03;95759.59;;;11.30;53.79
7335;BME280;3708;42.632;23.378;2022-10-17T06:08:33;95765.22;;;11.24;53.48
7335;BME280;3708;42.632;23.378;2022-10-17T06:11:02;95764.72;;;11.40;53.24
7335;BME280;3708;42.632;23.378;2022-10-17T06:13:30;95774.72;;;11.20;53.40
7335;BME280;3708;42.632;23.378;2022-10-17T06:15:57;95768.84;;;11.09;53.61
7335;BME280;3708;42.632;23.378;2022-10-17T06:18:24;95769.47;;;11.20;53.45
7335;BME280;3708;42.632;23.378;2022-10-17T06:20:51;95767.41;;;11.35;53.42
7335;BME280;3708;42.632;23.378;2022-10-17T06:23:18;95779.13;;;11.57;52.98
7335;BME280;3708;42.632;23.378;2022-10-17T06:25:46;95789.00;;;11.46;52.91
7335;BME280;3708;42.632;23.378;2022-10-17T06:28:14;95787.00;;;11.75;52.94
7335;BME280;3708;42.632;23.378;2022-10-17T06:30:41;95791.47;;;11.75;52.87
7335;BME280;3708;42.632;23.378;2022-10-17T06:33:08;95792.88;;;11.86;53.02
7335;BME280;3708;42.632;23.378;2022-10-17T06:35:36;95792.41;;;12.11;52.82
7335;BME280;3708;42.632;23.378;2022-10-17T06:38:03;95789.19;;;12.00;53.04
7335;BME280;3708;42.632;23.378;2022-10-17T06:40:30;95802.34;;;11.68;53.75
7335;BME280;3708;42.632;23.378;2022-10-17T06:43:00;95805.09;;;11.77;53.75
7335;BME280;3708;42.632;23.378;2022-10-17T06:45:28;95800.56;;;11.96;53.72
7335;BME280;3708;42.632;23.378;2022-10-17T06:47:55;95806.19;;;11.89;53.22
7335;BME280;3708;42.632;23.378;2022-10-17T06:50:22;95809.78;;;11.93;53.21
7335;BME280;3708;42.632;23.378;2022-10-17T06:52:50;95808.13;;;11.97;53.25
7335;BME280;3708;42.632;23.378;2022-10-17T06:55:17;95797.47;;;12.21;53.09
7335;BME280;3708;42.632;23.378;2022-10-17T06:57:44;95799.84;;;12.50;52.39
7335;BME280;3708;42.632;23.378;2022-10-17T07:00:12;95807.28;;;12.83;52.08
7335;BME280;3708;42.632;23.378;2022-10-17T07:02:41;95797.34;;;13.08;51.14
7335;BME280;3708;42.632;23.378;2022-10-17T07:05:08;95798.28;;;13.25;50.99
7335;BME280;3708;42.632;23.378;2022-10-17T07:07:35;95808.28;;;13.37;50.03
7335;BME280;3708;42.632;23.378;2022-10-17T07:10:02;95808.22;;;13.50;49.32
7335;BME280;3708;42.632;23.378;2022-10-17T07:12:33;95803.69;;;13.64;49.27
7335;BME280;3708;42.632;23.378;2022-10-17T07:15:02;95802.44;;;13.62;49.36
7335;BME280;3708;42.632;23.378;2022-10-17T07:17:30;95806.84;;;13.97;48.62
7335;BME280;3708;42.632;23.378;2022-10-17T07:19:59;95809.56;;;14.14;48.21
7335;BME280;3708;42.632;23.378;2022-10-17T07:22:26;95800.88;;;14.36;47.83
7335;BME280;3708;42.632;23.378;2022-10-17T07:25:13;95802.31;;;14.50;47.75
7335;BME280;3708;42.632;23.378;2022-10-17T07:28:05;95808.25;;;14.73;47.24
7335;BME280;3708;42.632;23.378;2022-10-17T07:30:32;95811.25;;;14.80;46.61
7335;BME280;3708;42.632;23.378;2022-10-17T07:32:59;95802.44;;;15.02;46.27
7335;BME280;3708;42.632;23.378;2022-10-17T07:35:28;95813.00;;;14.23;47.21
7335;BME280;3708;42.632;23.378;2022-10-17T07:37:55;95810.41;;;14.63;46.87
7335;BME280;3708;42.632;23.378;2022-10-17T07:40:22;95813.41;;;14.78;46.59
7335;BME280;3708;42.632;23.378;2022-10-17T07:42:49;95819.16;;;14.89;46.32
7335;BME280;3708;42.632;23.378;2022-10-17T07:45:16;95818.75;;;15.04;45.83
7335;BME280;3708;42.632;23.378;2022-10-17T07:47:43;95817.34;;;14.98;45.52
7335;BME280;3708;42.632;23.378;2022-10-17T07:50:10;95820.91;;;15.10;45.53
7335;BME280;3708;42.632;23.378;2022-10-17T07:52:38;95823.75;;;15.40;45.78
7335;BME280;3708;42.632;23.378;2022-10-17T07:55:08;95822.38;;;15.59;45.07
7335;BME280;3708;42.632;23.378;2022-10-17T07:57:35;95812.28;;;15.70;44.55
7335;BME280;3708;42.632;23.378;2022-10-17T08:00:02;95810.22;;;15.92;44.43
7335;BME280;3708;42.632;23.378;2022-10-17T08:02:29;95810.56;;;15.82;43.80
7335;BME280;3708;42.632;23.378;2022-10-17T08:04:56;95810.41;;;15.70;44.38
7335;BME280;3708;42.632;23.378;2022-10-17T08:07:23;95808.63;;;16.09;43.92
7335;BME280;3708;42.632;23.378;2022-10-17T08:09:51;95803.31;;;16.26;48.74
7335;BME280;3708;42.632;23.378;2022-10-17T08:12:19;95795.53;;;17.17;58.18
7335;BME280;3708;42.632;23.378;2022-10-17T08:14:46;95794.66;;;17.33;45.68
7335;BME280;3708;42.632;23.378;2022-10-17T08:17:13;95792.00;;;17.75;44.26
7335;BME280;3708;42.632;23.378;2022-10-17T08:19:40;95800.91;;;18.03;45.74
7335;BME280;3708;42.632;23.378;2022-10-17T08:22:07;95792.41;;;18.90;45.11
7335;BME280;3708;42.632;23.378;2022-10-17T08:24:34;95789.22;;;19.37;40.62
7335;BME280;3708;42.632;23.378;2022-10-17T08:27:03;95791.91;;;19.25;37.78
7335;BME280;3708;42.632;23.378;2022-10-17T08:29:35;95797.38;;;19.56;37.36
7335;BME280;3708;42.632;23.378;2022-10-17T08:32:03;95792.94;;;19.60;37.08
7335;BME280;3708;42.632;23.378;2022-10-17T08:34:30;95803.88;;;19.19;36.58
7335;BME280;3708;42.632;23.378;2022-10-17T08:36:57;95805.75;;;19.18;36.98
7335;BME280;3708;42.632;23.378;2022-10-17T08:39:24;95796.19;;;19.41;36.88
7335;BME280;3708;42.632;23.378;2022-10-17T08:42:01;95794.91;;;19.63;37.02
7335;BME280;3708;42.632;23.378;2022-10-17T08:44:40;95793.91;;;19.67;36.87
7335;BME280;3708;42.632;23.378;2022-10-17T08:47:13;95798.91;;;19.57;36.13
7335;BME280;3708;42.632;23.378;2022-10-17T08:49:44;95804.72;;;19.35;34.94
7335;BME280;3708;42.632;23.378;2022-10-17T08:52:21;95798.91;;;19.57;35.37
7335;BME280;3708;42.632;23.378;2022-10-17T08:54:51;95796.19;;;19.29;34.93
7335;BME280;3708;42.632;23.378;2022-10-17T08:57:18;95808.94;;;19.36;34.65
7335;BME280;3708;42.632;23.378;2022-10-17T08:59:49;95806.28;;;19.24;34.59
7335;BME280;3708;42.632;23.378;2022-10-17T09:02:32;95802.13;;;19.11;33.68
7335;BME280;3708;42.632;23.378;2022-10-17T09:05:14;95801.81;;;18.52;34.50
7335;BME280;3708;42.632;23.378;2022-10-17T09:07:54;95808.00;;;18.80;33.93
7335;BME280;3708;42.632;23.378;2022-10-17T09:10:31;95805.88;;;19.10;32.25
7335;BME280;3708;42.632;23.378;2022-10-17T09:13:10;95811.00;;;19.54;31.72
7335;BME280;3708;42.632;23.378;2022-10-17T09:15:52;95800.91;;;19.88;31.88
7335;BME280;3708;42.632;23.378;2022-10-17T09:18:24;95793.09;;;20.22;32.04
7335;BME280;3708;42.632;23.378;2022-10-17T09:20:54;95804.94;;;19.82;32.46
7335;BME280;3708;42.632;23.378;2022-10-17T09:23:26;95805.13;;;20.04;32.50
7335;BME280;3708;42.632;23.378;2022-10-17T09:25:58;95801.16;;;19.83;31.98
7335;BME280;3708;42.632;23.378;2022-10-17T09:28:28;95795.09;;;19.98;31.95
7335;BME280;3708;42.632;23.378;2022-10-17T09:31:00;95802.78;;;19.59;32.15
7335;BME280;3708;42.632;23.378;2022-10-17T09:33:33;95806.75;;;19.93;31.41
7335;BME280;3708;42.632;23.378;2022-10-17T09:36:04;95804.41;;;19.36;31.26
7335;BME280;3708;42.632;23.378;2022-10-17T09:38:38;95798.63;;;19.74;31.35
7335;BME280;3708;42.632;23.378;2022-10-17T09:41:12;95800.56;;;19.89;31.11
7335;BME280;3708;42.632;23.378;2022-10-17T09:43:41;95790.53;;;19.98;30.64
7335;BME280;3708;42.632;23.378;2022-10-17T09:46:16;95796.53;;;20.38;30.34
7335;BME280;3708;42.632;23.378;2022-10-17T09:48:47;95789.59;;;20.49;29.30
7335;BME280;3708;42.632;23.378;2022-10-17T09:51:17;95790.25;;;20.62;29.16
7335;BME280;3708;42.632;23.378;2022-10-17T09:53:48;95791.38;;;20.77;28.25
7335;BME280;3708;42.632;23.378;2022-10-17T09:56:18;95790.88;;;20.56;28.74
7335;BME280;3708;42.632;23.378;2022-10-17T09:58:47;95795.84;;;20.73;28.10
7335;BME280;3708;42.632;23.378;2022-10-17T10:01:20;95788.13;;;20.68;27.97
7335;BME280;3708;42.632;23.378;2022-10-17T10:03:47;95783.84;;;21.13;27.92
7335;BME280;3708;42.632;23.378;2022-10-17T10:06:16;95788.66;;;21.43;27.72
7335;BME280;3708;42.632;23.378;2022-10-17T10:08:52;95773.56;;;21.31;26.73
7335;BME280;3708;42.632;23.378;2022-10-17T10:11:23;95785.66;;;21.44;27.08
7335;BME280;3708;42.632;23.378;2022-10-17T10:13:51;95779.47;;;21.40;26.68
7335;BME280;3708;42.632;23.378;2022-10-17T10:16:22;95780.63;;;21.39;26.52
7335;BME280;3708;42.632;23.378;2022-10-17T10:18:50;95779.91;;;21.42;26.35
7335;BME280;3708;42.632;23.378;2022-10-17T10:21:18;95776.97;;;21.47;27.02
7335;BME280;3708;42.632;23.378;2022-10-17T10:24:02;95773.44;;;21.62;26.75
7335;BME280;3708;42.632;23.378;2022-10-17T10:26:34;95770.47;;;21.67;26.56
7335;BME280;3708;42.632;23.378;2022-10-17T10:29:06;95766.59;;;22.45;26.22
7335;BME280;3708;42.632;23.378;2022-10-17T10:31:46;95758.38;;;22.57;25.29
7335;BME280;3708;42.632;23.378;2022-10-17T10:34:17;95759.59;;;22.59;24.34
7335;BME280;3708;42.632;23.378;2022-10-17T10:36:59;95761.34;;;22.52;24.45
7335;BME280;3708;42.632;23.378;2022-10-17T10:39:37;95752.44;;;22.67;24.75
7335;BME280;3708;42.632;23.378;2022-10-17T10:42:20;95760.59;;;23.00;24.21
7335;BME280;3708;42.632;23.378;2022-10-17T10:44:48;95757.78;;;23.19;24.16
7335;BME280;3708;42.632;23.378;2022-10-17T10:47:20;95755.31;;;23.63;23.85
7335;BME280;3708;42.632;23.378;2022-10-17T10:49:49;95755.16;;;23.86;23.55
7335;BME280;3708;42.632;23.378;2022-10-17T10:52:28;95750.47;;;23.76;23.18
7335;BME280;3708;42.632;23.378;2022-10-17T10:55:03;95746.31;;;23.78;23.15
7335;BME280;3708;42.632;23.378;2022-10-17T10:57:32;95749.50;;;23.58;24.12
7335;BME280;3708;42.632;23.378;2022-10-17T11:00:05;95748.47;;;23.36;23.75
7335;BME280;3708;42.632;23.378;2022-10-17T11:02:43;95747.06;;;23.79;23.40
7335;BME280;3708;42.632;23.378;2022-10-17T11:05:16;95740.66;;;23.54;23.40
7335;BME280;3708;42.632;23.378;2022-10-17T11:07:53;95739.00;;;24.12;22.48
7335;BME280;3708;42.632;23.378;2022-10-17T11:10:30;95728.97;;;24.02;23.03
7335;BME280;3708;42.632;23.378;2022-10-17T11:13:04;95735.47;;;24.41;23.20
7335;BME280;3708;42.632;23.378;2022-10-17T11:15:36;95736.34;;;24.59;22.32
7335;BME280;3708;42.632;23.378;2022-10-17T11:18:10;95729.25;;;24.30;22.59
7335;BME280;3708;42.632;23.378;2022-10-17T11:20:47;95721.44;;;24.14;22.56
7335;BME280;3708;42.632;23.378;2022-10-17T11:23:18;95728.38;;;24.66;22.38
7335;BME280;3708;42.632;23.378;2022-10-17T11:25:48;95724.47;;;25.15;22.12
7335;BME280;3708;42.632;23.378;2022-10-17T11:28:17;95725.31;;;25.36;21.54
7335;BME280;3708;42.632;23.378;2022-10-17T11:30:49;95717.63;;;25.21;21.09
7335;BME280;3708;42.632;23.378;2022-10-17T11:33:23;95721.72;;;25.97;20.86
7335;BME280;3708;42.632;23.378;2022-10-17T11:35:53;95717.94;;;26.40;20.29
7335;BME280;3708;42.632;23.378;2022-10-17T11:38:25;95714.88;;;26.77;19.81
7335;BME280;3708;42.632;23.378;2022-10-17T11:40:57;95713.72;;;26.82;19.86
7335;BME280;3708;42.632;23.378;2022-10-17T11:43:27;95721.38;;;26.97;20.00
7335;BME280;3708;42.632;23.378;2022-10-17T11:46:00;95711.69;;;27.21;20.07
7335;BME280;3708;42.632;23.378;2022-10-17T11:48:34;95707.59;;;26.50;20.22
7335;BME280;3708;42.632;23.378;2022-10-17T11:51:13;95708.50;;;25.39;20.93
7335;BME280;3708;42.632;23.378;2022-10-17T11:53:50;95697.16;;;25.95;20.60
7335;BME280;3708;42.632;23.378;2022-10-17T11:56:25;95699.91;;;26.27;19.98
7335;BME280;3708;42.632;23.378;2022-10-17T11:58:57;95688.75;;;26.60;19.64
7335;BME280;3708;42.632;23.378;2022-10-17T12:01:39;95696.34;;;27.14;19.61
7335;BME280;3708;42.632;23.378;2022-10-17T12:04:19;95697.69;;;27.65;18.69
7335;BME280;3708;42.632;23.378;2022-10-17T12:06:58;95694.78;;;27.20;18.91
7335;BME280;3708;42.632;23.378;2022-10-17T12:09:39;95692.56;;;26.91;19.49
7335;BME280;3708;42.632;23.378;2022-10-17T12:12:23;95697.38;;;27.52;19.08
7335;BME280;3708;42.632;23.378;2022-10-17T12:14:53;95695.38;;;27.70;18.57
7335;BME280;3708;42.632;23.378;2022-10-17T12:17:31;95699.69;;;27.54;18.54
7335;BME280;3708;42.632;23.378;2022-10-17T12:20:28;95690.88;;;27.46;18.76
7335;BME280;3708;42.632;23.378;2022-10-17T12:23:04;95694.69;;;27.56;18.69
7335;BME280;3708;42.632;23.378;2022-10-17T12:25:49;95684.97;;;27.72;18.94
7335;BME280;3708;42.632;23.378;2022-10-17T12:28:25;95688.06;;;28.29;18.42
7335;BME280;3708;42.632;23.378;2022-10-17T12:33:51;95685.44;;;28.22;18.55
7335;BME280;3708;42.632;23.378;2022-10-17T12:36:47;95677.44;;;28.59;18.37
7335;BME280;3708;42.632;23.378;2022-10-17T12:39:40;95679.47;;;28.86;17.94
7335;BME280;3708;42.632;23.378;2022-10-17T12:42:32;95673.03;;;28.76;18.38
7335;BME280;3708;42.632;23.378;2022-10-17T12:45:46;95673.31;;;28.44;17.94
7335;BME280;3708;42.632;23.378;2022-10-17T12:51:24;95670.41;;;29.06;17.87
7335;BME280;3708;42.632;23.378;2022-10-17T12:54:00;95677.22;;;29.52;16.53
7335;BME280;3708;42.632;23.378;2022-10-17T12:56:33;95678.84;;;29.08;17.18
7335;BME280;3708;42.632;23.378;2022-10-17T12:59:08;95676.09;;;29.15;17.26
7335;BME280;3708;42.632;23.378;2022-10-17T13:01:48;95678.19;;;29.34;17.02
7335;BME280;3708;42.632;23.378;2022-10-17T13:04:24;95683.41;;;29.79;17.00
7335;BME280;3708;42.632;23.378;2022-10-17T13:07:17;95678.50;;;29.40;16.86
7335;BME280;3708;42.632;23.378;2022-10-17T13:09:56;95672.38;;;28.65;17.30
7335;BME280;3708;42.632;23.378;2022-10-17T13:12:32;95677.31;;;29.07;17.45
7335;BME280;3708;42.632;23.378;2022-10-17T13:15:10;95671.59;;;29.39;16.75
7335;BME280;3708;42.632;23.378;2022-10-17T13:17:42;95677.97;;;29.82;16.81
7335;BME280;3708;42.632;23.378;2022-10-17T13:20:21;95671.59;;;29.96;15.53
7335;BME280;3708;42.632;23.378;2022-10-17T13:22:55;95664.19;;;30.00;15.83
7335;BME280;3708;42.632;23.378;2022-10-17T13:25:30;95668.72;;;30.06;15.71
7335;BME280;3708;42.632;23.378;2022-10-17T13:28:12;95670.72;;;30.02;14.98
7335;BME280;3708;42.632;23.378;2022-10-17T13:30:45;95670.06;;;29.95;15.22
7335;BME280;3708;42.632;23.378;2022-10-17T13:33:31;95665.13;;;30.17;15.16
7335;BME280;3708;42.632;23.378;2022-10-17T13:35:59;95670.38;;;30.50;15.41
7335;BME280;3708;42.632;23.378;2022-10-17T13:38:34;95669.41;;;30.83;15.01
7335;BME280;3708;42.632;23.378;2022-10-17T13:41:10;95670.50;;;30.66;14.03
7335;BME280;3708;42.632;23.378;2022-10-17T13:43:46;95670.91;;;30.84;14.24
7335;BME280;3708;42.632;23.378;2022-10-17T13:46:26;95662.72;;;31.11;13.72